createdAt,value
2018-12-05T00:01:43.315Z,7.26
2018-12-05T00:04:10.808Z,7.28
2018-12-05T00:06:38.270Z,7.33
2018-12-05T00:09:05.733Z,7.29
2018-12-05T00:11:33.172Z,7.32
2018-12-05T00:14:00.619Z,7.33
2018-12-05T00:16:28.078Z,7.31
2018-12-05T00:18:55.537Z,7.42
2018-12-05T00:21:24.440Z,7.37
2018-12-05T00:23:51.930Z,7.48
2018-12-05T00:26:19.460Z,7.38
2018-12-05T00:28:46.915Z,7.30
2018-12-05T00:31:14.399Z,7.33
2018-12-05T00:33:41.927Z,7.35
2018-12-05T00:36:09.370Z,7.36
2018-12-05T00:38:36.827Z,7.37
2018-12-05T00:41:04.266Z,7.22
2018-12-05T00:43:32.209Z,7.28
2018-12-05T00:45:59.627Z,7.42
2018-12-05T00:48:27.060Z,7.40
2018-12-05T00:50:54.523Z,7.42
2018-12-05T00:53:21.978Z,7.48
2018-12-05T00:55:49.442Z,7.37
2018-12-05T00:58:16.902Z,7.52
2018-12-05T01:00:44.332Z,7.45
2018-12-05T01:03:11.779Z,7.38
2018-12-05T01:05:40.330Z,7.42
2018-12-05T01:08:07.778Z,7.31
2018-12-05T01:10:35.191Z,7.30
2018-12-05T01:13:02.667Z,7.39
2018-12-05T01:15:30.128Z,7.26
2018-12-05T01:17:57.561Z,7.26
2018-12-05T01:20:25.057Z,7.23
2018-12-05T01:22:52.461Z,7.22
2018-12-05T01:25:19.909Z,7.18
2018-12-05T01:27:48.110Z,7.21
2018-12-05T01:30:15.531Z,7.28
2018-12-05T01:32:42.967Z,7.33
2018-12-05T01:35:10.417Z,7.35
2018-12-05T01:37:37.884Z,7.41
2018-12-05T01:40:05.300Z,7.32
2018-12-05T01:42:32.743Z,7.17
2018-12-05T01:45:00.167Z,7.16
2018-12-05T01:47:27.617Z,7.18
2018-12-05T01:49:55.060Z,7.13
2018-12-05T01:52:22.501Z,7.23
2018-12-05T01:54:49.944Z,7.17
2018-12-05T01:57:17.397Z,7.24
2018-12-05T01:59:44.846Z,7.22
2018-12-05T02:02:12.331Z,7.25
2018-12-05T02:04:39.745Z,7.21
2018-12-05T02:07:07.183Z,7.12
2018-12-05T02:09:34.696Z,7.17
2018-12-05T02:12:02.112Z,7.25
2018-12-05T02:14:29.566Z,7.27
2018-12-05T02:16:57.006Z,7.08
2018-12-05T02:19:24.463Z,7.08
2018-12-05T02:21:51.887Z,7.18
2018-12-05T02:24:19.351Z,7.30
2018-12-05T02:26:46.769Z,7.15
2018-12-05T02:29:14.193Z,7.23
2018-12-05T02:31:41.616Z,7.20
2018-12-05T02:34:09.039Z,7.21
2018-12-05T02:36:36.471Z,7.22
2018-12-05T02:39:03.926Z,7.14
2018-12-05T02:41:31.339Z,7.15
2018-12-05T02:43:58.785Z,7.04
2018-12-05T02:46:26.229Z,7.16
2018-12-05T02:48:53.674Z,7.29
2018-12-05T02:51:21.127Z,7.04
2018-12-05T02:53:48.590Z,7.04
2018-12-05T02:56:16.024Z,6.89
2018-12-05T02:58:43.485Z,7.04
2018-12-05T03:01:10.946Z,7.20
2018-12-05T03:03:38.382Z,7.20
2018-12-05T03:06:05.826Z,7.06
2018-12-05T03:08:35.053Z,7.01
2018-12-05T03:11:02.495Z,6.99
2018-12-05T03:13:29.972Z,7.12
2018-12-05T03:15:57.419Z,7.15
2018-12-05T03:18:24.851Z,7.15
2018-12-05T03:20:52.327Z,7.15
2018-12-05T03:23:19.740Z,7.21
2018-12-05T03:25:47.228Z,7.22
2018-12-05T03:28:14.662Z,7.10
2018-12-05T03:30:42.308Z,7.15
2018-12-05T03:33:09.745Z,6.92
2018-12-05T03:35:39.110Z,6.99
2018-12-05T03:38:06.529Z,7.00
2018-12-05T03:40:33.943Z,6.99
2018-12-05T03:43:01.387Z,7.01
2018-12-05T03:45:28.815Z,7.08
2018-12-05T03:47:56.271Z,7.00
2018-12-05T03:50:23.693Z,6.99
2018-12-05T03:52:51.147Z,6.80
2018-12-05T03:55:20.185Z,6.94
2018-12-05T03:57:46.071Z,6.85
2018-12-05T04:00:13.533Z,6.97
2018-12-05T04:02:40.974Z,6.85
2018-12-05T04:05:08.431Z,6.89
2018-12-05T04:07:35.884Z,6.90
2018-12-05T04:10:03.335Z,6.89
2018-12-05T04:12:30.804Z,6.88
2018-12-05T04:14:58.319Z,6.97
2018-12-05T04:17:25.707Z,6.94
2018-12-05T04:19:53.206Z,6.95
2018-12-05T04:22:20.651Z,6.89
2018-12-05T04:24:48.078Z,6.95
2018-12-05T04:27:15.546Z,6.98
2018-12-05T04:29:43.013Z,6.97
2018-12-05T04:32:10.424Z,6.92
2018-12-05T04:34:37.885Z,6.54
2018-12-05T04:37:06.422Z,6.47
2018-12-05T04:39:33.860Z,6.64
2018-12-05T04:42:01.294Z,6.53
2018-12-05T04:44:28.725Z,6.37
2018-12-05T04:46:56.183Z,6.67
2018-12-05T04:49:23.682Z,6.74
2018-12-05T04:51:51.131Z,6.52
2018-12-05T04:54:18.552Z,6.65
2018-12-05T04:56:45.989Z,6.73
2018-12-05T04:59:13.404Z,6.71
2018-12-05T05:01:40.851Z,6.69
2018-12-05T05:04:08.272Z,6.55
2018-12-05T05:06:41.572Z,6.68
2018-12-05T05:09:03.246Z,6.60
2018-12-05T05:11:30.665Z,6.62
2018-12-05T05:13:58.140Z,6.30
2018-12-05T05:16:25.562Z,6.70
2018-12-05T05:18:52.996Z,6.64
2018-12-05T05:21:20.456Z,6.44
2018-12-05T05:23:47.955Z,6.58
2018-12-05T05:26:15.410Z,6.68
2018-12-05T05:28:42.834Z,6.79
2018-12-05T05:31:10.270Z,6.56
2018-12-05T05:33:37.687Z,6.64
2018-12-05T05:36:05.141Z,6.75
2018-12-05T05:38:32.560Z,6.81
2018-12-05T05:41:00.097Z,6.90
2018-12-05T05:43:27.524Z,6.89
2018-12-05T05:45:54.977Z,6.93
2018-12-05T05:48:22.423Z,6.84
2018-12-05T05:50:49.874Z,6.57
2018-12-05T05:53:17.333Z,6.77
2018-12-05T05:55:44.779Z,6.78
2018-12-05T05:58:12.224Z,6.40
2018-12-05T06:00:39.683Z,6.43
2018-12-05T06:03:07.108Z,6.70
2018-12-05T06:05:34.531Z,6.76
2018-12-05T06:08:02.058Z,6.74
2018-12-05T06:10:29.527Z,6.80
2018-12-05T06:12:56.950Z,6.57
2018-12-05T06:15:24.396Z,6.89
2018-12-05T06:17:51.869Z,6.88
2018-12-05T06:20:19.304Z,6.71
2018-12-05T06:22:46.730Z,6.93
2018-12-05T06:25:14.165Z,6.84
2018-12-05T06:27:41.593Z,6.99
2018-12-05T06:30:09.048Z,6.85
2018-12-05T06:32:36.462Z,6.99
2018-12-05T06:35:03.890Z,6.96
2018-12-05T06:37:31.316Z,6.96
2018-12-05T06:39:58.746Z,6.94
2018-12-05T06:42:26.224Z,7.07
2018-12-05T06:44:53.658Z,7.06
2018-12-05T06:47:21.096Z,7.06
2018-12-05T06:49:48.503Z,6.91
2018-12-05T06:52:16.015Z,7.12
2018-12-05T06:54:43.452Z,7.06
2018-12-05T06:57:10.887Z,7.18
2018-12-05T06:59:38.306Z,7.12
2018-12-05T07:02:05.760Z,7.17
2018-12-05T07:04:33.225Z,7.24
2018-12-05T07:07:00.648Z,7.18
2018-12-05T07:09:28.091Z,7.18
2018-12-05T07:11:55.538Z,7.23
2018-12-05T07:14:23.037Z,7.24
2018-12-05T07:16:50.459Z,7.07
2018-12-05T07:19:17.906Z,7.21
2018-12-05T07:21:45.340Z,7.15
2018-12-05T07:24:12.775Z,7.02
2018-12-05T07:26:40.208Z,7.07
2018-12-05T07:29:07.662Z,7.14
2018-12-05T07:31:35.097Z,6.84
2018-12-05T07:34:02.590Z,7.10
2018-12-05T07:36:30.024Z,7.20
2018-12-05T07:38:58.652Z,7.20
2018-12-05T07:41:26.162Z,7.17
2018-12-05T07:43:53.574Z,7.16
2018-12-05T07:46:21.012Z,7.17
2018-12-05T07:48:48.442Z,7.11
2018-12-05T07:51:15.906Z,7.12
2018-12-05T07:53:44.266Z,7.16
2018-12-05T07:56:11.711Z,6.91
2018-12-05T07:58:39.163Z,7.18
2018-12-05T08:01:06.612Z,7.25
2018-12-05T08:03:34.072Z,6.98
2018-12-05T08:06:01.525Z,7.20
2018-12-05T08:08:29.036Z,7.26
2018-12-05T08:10:56.477Z,6.95
2018-12-05T08:13:23.923Z,7.15
2018-12-05T08:15:51.358Z,7.28
2018-12-05T08:18:18.826Z,6.87
2018-12-05T08:20:46.260Z,6.81
2018-12-05T08:23:13.718Z,7.06
2018-12-05T08:25:41.172Z,7.24
2018-12-05T08:28:08.629Z,7.27
2018-12-05T08:30:36.059Z,7.26
2018-12-05T08:33:03.497Z,7.07
2018-12-05T08:35:30.938Z,7.28
2018-12-05T08:37:58.372Z,7.19
2018-12-05T08:40:26.729Z,7.03
2018-12-05T08:42:54.151Z,7.31
2018-12-05T08:45:21.627Z,7.29
2018-12-05T08:47:49.044Z,7.49
2018-12-05T08:50:16.473Z,7.38
2018-12-05T08:52:44.044Z,7.13
2018-12-05T08:55:11.500Z,7.40
2018-12-05T08:57:38.932Z,7.23
2018-12-05T09:00:06.389Z,7.34
2018-12-05T09:02:33.827Z,7.46
2018-12-05T09:05:01.245Z,7.59
2018-12-05T09:07:28.704Z,7.44
2018-12-05T09:09:56.128Z,7.44
2018-12-05T09:12:23.584Z,7.45
2018-12-05T09:14:51.001Z,7.47
2018-12-05T09:17:18.463Z,7.59
2018-12-05T09:19:45.893Z,7.50
2018-12-05T09:22:13.336Z,7.70
2018-12-05T09:24:40.755Z,7.69
2018-12-05T09:27:08.212Z,7.54
2018-12-05T09:29:35.666Z,7.76
2018-12-05T09:32:03.565Z,7.18
2018-12-05T09:34:31.819Z,7.63
2018-12-05T09:37:00.251Z,7.78
2018-12-05T09:39:27.776Z,7.72
2018-12-05T09:41:55.217Z,7.79
2018-12-05T09:44:22.677Z,7.77
2018-12-05T09:46:50.111Z,7.93
2018-12-05T09:49:17.540Z,7.89
2018-12-05T09:51:45.021Z,7.91
2018-12-05T09:54:12.489Z,7.99
2018-12-05T09:56:39.906Z,7.98
2018-12-05T09:59:08.207Z,7.95
2018-12-05T10:01:35.682Z,7.62
2018-12-05T10:04:03.117Z,7.97
2018-12-05T10:06:30.573Z,7.85
2018-12-05T10:08:58.033Z,8.03
2018-12-05T10:11:25.485Z,7.92
2018-12-05T10:13:52.954Z,8.03
2018-12-05T10:16:20.424Z,7.90
2018-12-05T10:18:47.835Z,7.90
2018-12-05T10:21:15.288Z,7.89
2018-12-05T10:23:42.706Z,7.93
2018-12-05T10:26:10.133Z,7.89
2018-12-05T10:28:37.591Z,7.46
2018-12-05T10:31:05.010Z,7.81
2018-12-05T10:33:32.459Z,7.91
2018-12-05T10:35:59.910Z,7.96
2018-12-05T10:38:27.323Z,7.57
2018-12-05T10:40:54.762Z,7.47
2018-12-05T10:43:24.407Z,7.81
2018-12-05T10:45:51.855Z,7.47
2018-12-05T10:48:19.309Z,7.84
2018-12-05T10:50:46.752Z,8.02
2018-12-05T10:53:14.218Z,7.90
2018-12-05T10:55:41.682Z,7.82
2018-12-05T10:58:09.125Z,7.98
2018-12-05T11:00:42.081Z,7.83
2018-12-05T11:03:14.935Z,8.12
2018-12-05T11:05:48.870Z,8.00
2018-12-05T11:08:19.375Z,7.88
2018-12-05T11:10:52.332Z,8.09
2018-12-05T11:13:25.434Z,8.25
2018-12-05T11:15:58.381Z,7.94
2018-12-05T11:18:32.878Z,8.26
2018-12-05T11:21:04.429Z,8.09
2018-12-05T11:23:37.523Z,8.11
2018-12-05T11:26:04.944Z,8.22
2018-12-05T11:28:32.366Z,8.00
2018-12-05T11:31:30.369Z,8.23
2018-12-05T11:34:28.139Z,8.49
2018-12-05T11:37:26.008Z,8.43
2018-12-05T11:40:23.844Z,8.14
2018-12-05T11:43:21.589Z,8.24
2018-12-05T11:46:19.449Z,8.32
2018-12-05T11:48:46.887Z,8.39
2018-12-05T11:51:14.342Z,8.37
2018-12-05T11:53:41.757Z,7.93
2018-12-05T11:56:09.264Z,8.19
2018-12-05T11:58:36.689Z,8.33
2018-12-05T12:01:04.190Z,8.40
2018-12-05T12:03:31.610Z,7.87
2018-12-05T12:05:59.066Z,8.37
2018-12-05T12:08:26.498Z,8.40
2018-12-05T12:10:53.904Z,8.46
2018-12-05T12:13:21.344Z,8.27
2018-12-05T12:15:48.812Z,8.30
2018-12-05T12:18:16.270Z,8.34
2018-12-05T12:20:43.705Z,8.34
2018-12-05T12:23:11.179Z,8.13
2018-12-05T12:25:38.588Z,8.35
2018-12-05T12:28:06.044Z,8.50
2018-12-05T12:30:33.458Z,8.42
2018-12-05T12:33:02.656Z,8.50
2018-12-05T12:35:29.516Z,8.43
2018-12-05T12:37:57.052Z,8.23
2018-12-05T12:40:24.513Z,8.24
2018-12-05T12:42:51.941Z,8.53
2018-12-05T12:45:20.124Z,8.52
2018-12-05T12:47:46.914Z,8.18
2018-12-05T12:50:14.338Z,8.47
2018-12-05T12:52:41.772Z,8.52
2018-12-05T12:55:09.243Z,8.57
2018-12-05T12:57:36.670Z,8.35
2018-12-05T13:00:04.150Z,8.44
2018-12-05T13:02:31.572Z,8.03
2018-12-05T13:04:59.008Z,8.13
2018-12-05T13:07:26.467Z,8.26
2018-12-05T13:09:53.915Z,8.22
2018-12-05T13:12:26.306Z,8.34
2018-12-05T13:14:53.764Z,8.39
2018-12-05T13:34:24.158Z,8.55
2018-12-05T13:36:51.588Z,8.37
2018-12-05T13:39:19.009Z,8.47
2018-12-05T13:41:46.430Z,8.66
2018-12-05T13:44:13.869Z,8.48
2018-12-05T13:46:41.288Z,8.56
2018-12-05T13:49:08.726Z,8.60
2018-12-05T13:51:36.158Z,8.11
2018-12-05T13:54:03.584Z,8.22
2018-12-05T13:56:31.015Z,8.48
2018-12-05T13:58:58.485Z,8.29
2018-12-05T14:01:25.914Z,8.33
2018-12-05T14:03:53.357Z,8.42
2018-12-05T14:06:20.769Z,8.37
2018-12-05T14:08:48.213Z,8.64
2018-12-05T14:11:15.643Z,8.51
2018-12-05T14:13:43.079Z,8.59
2018-12-05T14:16:10.513Z,8.70
2018-12-05T14:18:37.949Z,8.41
2018-12-05T14:21:05.365Z,8.54
2018-12-05T14:23:32.836Z,8.37
2018-12-05T14:26:00.256Z,8.49
2018-12-05T14:28:29.841Z,8.38
2018-12-05T14:30:57.317Z,8.48
2018-12-05T14:33:24.756Z,8.56
2018-12-05T14:35:52.209Z,8.57
2018-12-05T14:38:19.634Z,8.64
2018-12-05T14:40:47.080Z,8.65
2018-12-05T14:43:14.526Z,8.86
2018-12-05T14:45:41.948Z,8.19
2018-12-05T14:48:09.371Z,8.53
2018-12-05T14:50:36.823Z,8.70
2018-12-05T14:53:04.261Z,8.73
2018-12-05T14:55:31.690Z,8.68
2018-12-05T14:57:59.127Z,8.74
2018-12-05T15:00:26.553Z,8.77
2018-12-05T15:02:55.127Z,8.75
2018-12-05T15:05:22.633Z,8.61
2018-12-05T15:07:50.073Z,8.48
2018-12-05T15:10:17.471Z,8.75
2018-12-05T15:12:44.932Z,8.72
2018-12-05T15:15:12.378Z,8.65
2018-12-05T15:17:39.819Z,8.63
2018-12-05T15:20:07.277Z,8.70
2018-12-05T15:22:34.786Z,8.65
2018-12-05T15:25:02.218Z,8.81
2018-12-05T15:27:29.645Z,8.72
2018-12-05T15:46:59.486Z,8.63
2018-12-05T15:49:26.948Z,8.69
2018-12-05T15:51:54.383Z,8.66
2018-12-05T15:54:21.812Z,8.63
2018-12-05T15:56:49.233Z,8.67
2018-12-05T15:59:16.729Z,8.67
2018-12-05T16:01:44.174Z,8.62
2018-12-05T16:04:11.620Z,8.62
2018-12-05T16:06:39.036Z,8.60
2018-12-05T16:09:06.506Z,8.62
2018-12-05T16:11:35.057Z,8.71
2018-12-05T16:14:02.576Z,8.58
2018-12-05T16:16:30.003Z,8.64
2018-12-05T16:18:57.433Z,8.47
2018-12-05T16:21:24.895Z,8.55
2018-12-05T16:23:52.319Z,8.53
2018-12-05T16:26:19.749Z,8.61
2018-12-05T16:28:47.191Z,8.52
2018-12-05T16:31:14.633Z,8.56
2018-12-05T16:33:42.057Z,8.56
2018-12-05T16:36:11.210Z,8.34
2018-12-05T16:38:37.117Z,8.63
2018-12-05T16:41:04.553Z,8.61
2018-12-05T16:43:32.006Z,8.41
2018-12-05T16:45:59.462Z,8.58
2018-12-05T16:48:26.891Z,8.63
2018-12-05T16:50:54.362Z,8.72
2018-12-05T16:53:21.852Z,8.48
2018-12-05T16:55:49.270Z,8.72
2018-12-05T16:58:16.712Z,8.72
2018-12-05T17:00:44.133Z,8.79
2018-12-05T17:03:11.614Z,8.64
2018-12-05T17:05:39.015Z,8.58
2018-12-05T17:08:07.011Z,8.73
2018-12-05T17:10:34.457Z,8.65
2018-12-05T17:13:01.907Z,8.63
2018-12-05T17:15:29.391Z,8.74
2018-12-05T17:17:56.864Z,8.59
2018-12-05T17:20:24.285Z,8.57
2018-12-05T17:22:51.775Z,8.73
2018-12-05T17:25:19.230Z,8.76
2018-12-05T17:27:46.641Z,8.41
2018-12-05T17:30:14.072Z,8.60
2018-12-05T17:32:41.477Z,8.55
2018-12-05T17:35:08.920Z,8.58
2018-12-05T17:37:36.329Z,8.70
2018-12-05T17:40:03.796Z,8.56
2018-12-05T17:42:31.199Z,8.52
2018-12-05T17:44:58.609Z,8.70
2018-12-05T17:47:26.053Z,8.69
2018-12-05T17:49:53.461Z,8.84
2018-12-05T17:52:20.895Z,8.84
2018-12-05T17:54:48.334Z,8.72
2018-12-05T17:57:15.784Z,8.88
2018-12-05T17:59:43.209Z,8.47
2018-12-05T18:02:10.636Z,8.62
2018-12-05T18:04:38.048Z,8.79
2018-12-05T18:07:06.831Z,8.61
2018-12-05T18:09:32.951Z,8.58
2018-12-05T18:12:00.378Z,8.71
2018-12-05T18:14:27.835Z,8.64
2018-12-05T18:16:55.261Z,8.67
2018-12-05T18:19:22.703Z,8.63
2018-12-05T18:21:50.125Z,8.62
2018-12-05T18:24:17.570Z,8.71
2018-12-05T18:26:44.986Z,8.59
2018-12-05T18:29:12.443Z,8.71
2018-12-05T18:31:39.882Z,8.58
2018-12-05T18:34:07.293Z,8.76
2018-12-05T18:36:34.732Z,8.54
2018-12-05T18:39:02.170Z,8.67
2018-12-05T18:41:29.583Z,8.73
2018-12-05T18:43:57.017Z,8.59
2018-12-05T18:46:24.503Z,8.66
2018-12-05T18:48:51.994Z,8.22
2018-12-05T18:51:19.407Z,8.49
2018-12-05T18:53:46.868Z,8.60
2018-12-05T18:56:14.300Z,8.60
2018-12-05T18:58:41.737Z,8.59
2018-12-05T19:01:09.207Z,8.76
2018-12-05T19:03:36.654Z,8.66
2018-12-05T19:06:05.289Z,8.64
2018-12-05T19:08:34.424Z,8.82
2018-12-05T19:11:00.169Z,8.68
2018-12-05T19:30:30.338Z,8.78
2018-12-05T19:32:57.711Z,8.71
2018-12-05T19:35:25.138Z,8.57
2018-12-05T19:37:52.579Z,8.50
2018-12-05T19:40:20.038Z,8.66
2018-12-05T19:42:47.485Z,8.72
2018-12-05T19:45:14.902Z,8.69
2018-12-05T19:47:42.391Z,8.67
2018-12-05T19:50:09.804Z,8.68
2018-12-05T19:52:38.279Z,8.77
2018-12-05T19:55:05.719Z,8.58
2018-12-05T19:57:33.146Z,8.58
2018-12-05T20:00:00.573Z,8.76
2018-12-05T20:02:28.000Z,8.76
2018-12-05T20:04:55.453Z,8.82
2018-12-05T20:07:24.669Z,8.72
2018-12-05T20:09:52.184Z,8.57
2018-12-05T20:12:19.635Z,8.75
2018-12-05T20:14:47.055Z,8.73
2018-12-05T20:17:14.492Z,8.59
2018-12-05T20:19:41.925Z,8.54
2018-12-05T20:22:09.381Z,8.65
2018-12-05T20:24:38.029Z,8.64
2018-12-05T20:27:05.467Z,8.59
2018-12-05T20:29:33.864Z,8.52
2018-12-05T20:32:01.291Z,8.41
2018-12-05T20:34:28.746Z,8.67
2018-12-05T20:36:56.171Z,8.28
2018-12-05T20:39:26.147Z,8.54
2018-12-05T20:41:51.655Z,8.62
2018-12-05T20:44:19.090Z,8.52
2018-12-05T20:46:46.517Z,8.59
2018-12-05T20:49:13.943Z,8.56
2018-12-05T20:51:41.415Z,8.72
2018-12-05T20:54:08.833Z,8.67
2018-12-05T20:56:36.231Z,8.61
2018-12-05T20:59:04.333Z,8.63
2018-12-05T21:01:31.774Z,8.42
2018-12-05T21:03:59.211Z,8.49
2018-12-05T21:06:26.717Z,8.47
2018-12-05T21:08:54.151Z,8.55
2018-12-05T21:11:22.359Z,8.80
2018-12-05T21:13:49.899Z,8.76
2018-12-05T21:16:17.344Z,8.64
2018-12-05T21:18:44.779Z,8.79
2018-12-05T21:21:12.211Z,8.60
2018-12-05T21:23:39.667Z,8.74
2018-12-05T21:46:09.956Z,8.79
2018-12-05T21:48:37.381Z,8.60
2018-12-05T21:51:04.809Z,8.58
2018-12-05T21:53:32.251Z,8.64
2018-12-05T21:55:59.704Z,8.86
2018-12-05T21:58:28.760Z,8.85
2018-12-05T22:00:56.393Z,8.76
2018-12-05T22:03:23.845Z,8.95
2018-12-05T22:05:51.267Z,8.83
2018-12-05T22:08:20.167Z,8.76
2018-12-05T22:30:50.156Z,8.46
2018-12-05T22:33:17.575Z,8.67
2018-12-05T22:35:45.013Z,8.78
2018-12-05T22:38:12.448Z,8.76
2018-12-05T22:40:39.875Z,8.86
2018-12-05T22:43:07.332Z,8.90
2018-12-05T22:45:34.895Z,8.86
2018-12-05T22:48:02.324Z,8.95
2018-12-05T22:50:29.774Z,8.95
2018-12-05T22:52:57.200Z,9.03
2018-12-05T22:55:24.633Z,8.99
2018-12-05T22:57:52.083Z,9.05
2018-12-05T23:00:19.566Z,8.98
2018-12-05T23:02:47.004Z,8.92
2018-12-05T23:05:14.433Z,8.91
2018-12-05T23:07:41.922Z,8.99
2018-12-05T23:10:09.345Z,9.13
2018-12-05T23:15:10.530Z,8.97
2018-12-05T23:17:37.978Z,8.93
2018-12-05T23:20:05.435Z,8.98
2018-12-05T23:22:32.896Z,8.88
2018-12-05T23:25:00.333Z,8.92
2018-12-05T23:27:27.772Z,8.96
2018-12-05T23:29:55.201Z,8.84
2018-12-05T23:49:24.627Z,9.18
2018-12-05T23:51:52.090Z,9.03
2018-12-05T23:54:19.545Z,8.73
2018-12-05T23:56:46.995Z,8.91
2018-12-05T23:59:14.439Z,8.95
